Wetterdaten: Woche 07.08.17 - 13.08.17 (KW32)
Datum Zeit Temp. A. Feuchte A. Luftdruck Regen Wind Richtung Taupunkt Windchill Windben
07.08.2017 00:00 11,0 C 92 % 1021,0 hPa 0,0 l/m 0,0 km/h (0 Bft) S-SW 9,7 C 11,0 C 0,0 km/h (0 Bft)
07.08.2017 01:00 10,5 C 94 % 1020,8 hPa 0,0 l/m 0,0 km/h (0 Bft) S-SW 9,5 C 10,5 C 0,0 km/h (0 Bft)
07.08.2017 02:00 10,0 C 94 % 1020,6 hPa 0,0 l/m 0,0 km/h (0 Bft) S-SW 9,0 C 10,0 C 0,1 km/h (0 Bft)
07.08.2017 03:00 9,3 C 94 % 1020,2 hPa 0,0 l/m 0,0 km/h (0 Bft) S-SW 8,3 C 9,3 C 0,0 km/h (0 Bft)
07.08.2017 04:00 8,6 C 95 % 1019,9 hPa 0,0 l/m 0,0 km/h (0 Bft) S-SW 7,8 C 8,6 C 0,0 km/h (0 Bft)
07.08.2017 05:00 8,1 C 95 % 1019,5 hPa 0,0 l/m 0,0 km/h (0 Bft) S-SW 7,4 C 8,1 C 0,0 km/h (0 Bft)
07.08.2017 06:00 7,7 C 96 % 1019,2 hPa 0,0 l/m 0,0 km/h (0 Bft) S-SW 7,0 C 7,7 C 0,0 km/h (0 Bft)
07.08.2017 07:00 8,6 C 96 % 1019,1 hPa 0,0 l/m 0,0 km/h (0 Bft) S-SW 8,1 C 8,6 C 0,4 km/h (0 Bft)
07.08.2017 08:00 13,1 C 87 % 1018,9 hPa 0,0 l/m 0,4 km/h (0 Bft) S-SW 11,0 C 13,1 C 1,9 km/h (1 Bft)
07.08.2017 09:00 17,7 C 74 % 1018,4 hPa 0,0 l/m 1,9 km/h (1 Bft) NW 12,9 C 17,7 C 5,7 km/h (2 Bft)
07.08.2017 10:00 19,5 C 63 % 1017,8 hPa 0,0 l/m 3,8 km/h (1 Bft) N-NW 12,3 C 19,5 C 10,1 km/h (2 Bft)
07.08.2017 11:00 21,0 C 58 % 1017,3 hPa 0,0 l/m 3,6 km/h (1 Bft) NW 12,5 C 21,0 C 8,7 km/h (2 Bft)
07.08.2017 12:00 21,8 C 54 % 1017,1 hPa 0,0 l/m 4,1 km/h (1 Bft) NW 12,1 C 21,8 C 10,1 km/h (2 Bft)
07.08.2017 13:00 22,9 C 49 % 1016,6 hPa 0,0 l/m 4,1 km/h (1 Bft) N 11,6 C 22,9 C 11,3 km/h (2 Bft)
07.08.2017 14:00 23,7 C 45 % 1016,1 hPa 0,0 l/m 4,0 km/h (1 Bft) NW 11,0 C 23,7 C 10,7 km/h (2 Bft)
07.08.2017 15:00 24,3 C 43 % 1015,5 hPa 0,0 l/m 3,8 km/h (1 Bft) W 11,0 C 24,3 C 10,6 km/h (2 Bft)
07.08.2017 16:00 24,8 C 41 % 1015,0 hPa 0,0 l/m 3,5 km/h (1 Bft) S 10,7 C 24,8 C 9,4 km/h (2 Bft)
07.08.2017 17:00 24,9 C 42 % 1014,5 hPa 0,0 l/m 3,0 km/h (1 Bft) W 10,9 C 24,9 C 9,5 km/h (2 Bft)
07.08.2017 18:00 24,3 C 44 % 1013,9 hPa 0,0 l/m 3,1 km/h (1 Bft) W-NW 11,4 C 24,3 C 9,1 km/h (2 Bft)
07.08.2017 19:00 22,9 C 50 % 1013,3 hPa 0,0 l/m 3,1 km/h (1 Bft) W-NW 11,9 C 22,9 C 9,1 km/h (2 Bft)
07.08.2017 20:00 21,1 C 57 % 1013,0 hPa 0,0 l/m 1,2 km/h (1 Bft) S-SW 12,3 C 21,1 C 4,5 km/h (1 Bft)
07.08.2017 21:00 18,1 C 72 % 1013,3 hPa 0,0 l/m 0,0 km/h (0 Bft) W-SW 12,8 C 18,1 C 0,4 km/h (0 Bft)
07.08.2017 22:00 15,3 C 82 % 1013,3 hPa 0,0 l/m 0,1 km/h (0 Bft) W-SW 12,2 C 15,3 C 0,8 km/h (0 Bft)
07.08.2017 23:00 13,6 C 88 % 1013,1 hPa 0,0 l/m 0,0 km/h (0 Bft) W-SW 11,6 C 13,6 C 0,0 km/h (0 Bft)
08.08.2017 00:00 12,9 C 90 % 1013,0 hPa 0,0 l/m 0,0 km/h (0 Bft) W-SW 11,2 C 12,9 C 0,1 km/h (0 Bft)
08.08.2017 01:00 11,9 C 92 % 1012,5 hPa 0,0 l/m 0,0 km/h (0 Bft) W-SW 10,7 C 11,9 C 0,0 km/h (0 Bft)
08.08.2017 02:00 11,5 C 94 % 1011,9 hPa 0,0 l/m 0,0 km/h (0 Bft) W-SW 10,6 C 11,5 C 0,0 km/h (0 Bft)
08.08.2017 03:00 11,2 C 94 % 1011,5 hPa 0,0 l/m 0,0 km/h (0 Bft) W-SW 10,3 C 11,2 C 0,0 km/h (0 Bft)
08.08.2017 04:00 11,5 C 95 % 1010,9 hPa 0,0 l/m 0,0 km/h (0 Bft) W-SW 10,7 C 11,5 C 0,5 km/h (0 Bft)
08.08.2017 05:00 12,0 C 94 % 1010,0 hPa 0,0 l/m 0,1 km/h (0 Bft) W-SW 11,1 C 12,0 C 0,5 km/h (0 Bft)
08.08.2017 06:00 12,4 C 94 % 1009,3 hPa 0,0 l/m 0,1 km/h (0 Bft) W-SW 11,4 C 12,4 C 0,8 km/h (0 Bft)
08.08.2017 07:00 13,0 C 94 % 1009,4 hPa 0,0 l/m 0,2 km/h (0 Bft) W-SW 12,0 C 13,0 C 1,6 km/h (1 Bft)
08.08.2017 08:00 14,3 C 92 % 1009,1 hPa 0,0 l/m 0,3 km/h (0 Bft) W-SW 12,9 C 14,3 C 1,9 km/h (1 Bft)
08.08.2017 09:00 16,4 C 86 % 1009,7 hPa 0,0 l/m 3,3 km/h (1 Bft) O-NO 14,0 C 16,4 C 8,6 km/h (2 Bft)
08.08.2017 10:00 19,1 C 75 % 1009,0 hPa 0,0 l/m 2,5 km/h (1 Bft) O-NO 14,6 C 19,1 C 6,6 km/h (2 Bft)
08.08.2017 11:00 18,8 C 79 % 1010,2 hPa 0,0 l/m 3,6 km/h (1 Bft) O-NO 14,9 C 18,8 C 8,1 km/h (2 Bft)
08.08.2017 12:00 18,1 C 82 % 1009,7 hPa 0,0 l/m 1,9 km/h (1 Bft) NO 15,0 C 18,1 C 5,4 km/h (2 Bft)
08.08.2017 13:00 17,8 C 84 % 1010,9 hPa 0,0 l/m 4,9 km/h (1 Bft) O-NO 15,0 C 17,8 C 14,0 km/h (3 Bft)
08.08.2017 14:00 18,1 C 82 % 1010,7 hPa 0,0 l/m 3,7 km/h (1 Bft) O-NO 14,9 C 18,1 C 10,2 km/h (2 Bft)
08.08.2017 15:00 18,6 C 79 % 1010,9 hPa 0,0 l/m 4,1 km/h (1 Bft) O-NO 14,9 C 18,6 C 10,6 km/h (2 Bft)
08.08.2017 16:00 18,6 C 73 % 1011,4 hPa 0,0 l/m 4,6 km/h (1 Bft) O-NO 13,6 C 18,6 C 11,5 km/h (2 Bft)
08.08.2017 17:00 18,9 C 67 % 1011,5 hPa 0,0 l/m 4,5 km/h (1 Bft) O-NO 12,6 C 18,9 C 12,4 km/h (2 Bft)
08.08.2017 18:00 18,7 C 66 % 1011,4 hPa 0,0 l/m 4,0 km/h (1 Bft) O-NO 12,1 C 18,7 C 12,2 km/h (2 Bft)
08.08.2017 19:00 18,1 C 72 % 1012,2 hPa 0,0 l/m 2,9 km/h (1 Bft) NO 12,9 C 18,1 C 7,5 km/h (2 Bft)
08.08.2017 20:00 17,0 C 81 % 1012,5 hPa 0,0 l/m 2,3 km/h (1 Bft) N 13,8 C 17,0 C 6,3 km/h (2 Bft)
08.08.2017 21:00 15,9 C 86 % 1013,0 hPa 0,0 l/m 1,6 km/h (1 Bft) N 13,5 C 15,9 C 5,2 km/h (1 Bft)
08.08.2017 22:00 15,6 C 85 % 1013,6 hPa 0,0 l/m 1,6 km/h (1 Bft) NO 13,0 C 15,6 C 5,6 km/h (2 Bft)
08.08.2017 23:00 15,5 C 85 % 1014,3 hPa 0,0 l/m 1,8 km/h (1 Bft) NO 12,9 C 15,5 C 4,7 km/h (1 Bft)
09.08.2017 00:00 15,5 C 83 % 1014,5 hPa 0,0 l/m 2,9 km/h (1 Bft) O-NO 12,6 C 15,4 C 7,6 km/h (2 Bft)
09.08.2017 01:00 14,9 C 85 % 1014,6 hPa 0,0 l/m 1,5 km/h (1 Bft) NO 12,4 C 14,9 C 5,1 km/h (1 Bft)
09.08.2017 02:00 14,3 C 86 % 1014,9 hPa 0,0 l/m 0,9 km/h (0 Bft) O-NO 12,0 C 14,3 C 4,1 km/h (1 Bft)
09.08.2017 03:00 13,5 C 88 % 1014,9 hPa 0,0 l/m 0,0 km/h (0 Bft) O-NO 11,6 C 13,5 C 0,1 km/h (0 Bft)
09.08.2017 04:00 11,9 C 92 % 1014,7 hPa 0,0 l/m 0,0 km/h (0 Bft) O-NO 10,7 C 11,9 C 0,3 km/h (0 Bft)
09.08.2017 05:00 10,7 C 94 % 1014,9 hPa 0,0 l/m 0,1 km/h (0 Bft) O-NO 9,7 C 10,7 C 0,5 km/h (0 Bft)
09.08.2017 06:00 9,6 C 94 % 1015,5 hPa 0,0 l/m 0,1 km/h (0 Bft) O-NO 8,7 C 9,6 C 0,4 km/h (0 Bft)
09.08.2017 07:00 10,1 C 96 % 1015,6 hPa 0,0 l/m 0,1 km/h (0 Bft) O-NO 9,5 C 10,1 C 0,7 km/h (0 Bft)
09.08.2017 08:00 13,9 C 88 % 1015,7 hPa 0,0 l/m 1,1 km/h (1 Bft) NW 11,8 C 13,9 C 3,7 km/h (1 Bft)
09.08.2017 09:00 15,5 C 83 % 1015,7 hPa 0,0 l/m 1,1 km/h (0 Bft) NO 12,6 C 15,5 C 4,0 km/h (1 Bft)
09.08.2017 10:00 17,3 C 73 % 1015,2 hPa 0,0 l/m 1,7 km/h (1 Bft) NO 12,4 C 17,3 C 5,3 km/h (1 Bft)
09.08.2017 11:00 18,8 C 64 % 1015,1 hPa 0,0 l/m 1,6 km/h (1 Bft) N 11,9 C 18,8 C 3,9 km/h (1 Bft)
09.08.2017 12:00 19,6 C 57 % 1015,1 hPa 0,0 l/m 1,7 km/h (1 Bft) N 10,9 C 19,6 C 3,3 km/h (1 Bft)
09.08.2017 13:00 19,9 C 59 % 1015,1 hPa 0,0 l/m 1,5 km/h (1 Bft) O 11,6 C 19,9 C 3,2 km/h (1 Bft)
09.08.2017 14:00 20,2 C 55 % 1015,0 hPa 0,0 l/m 1,1 km/h (1 Bft) S 10,8 C 20,2 C 3,0 km/h (1 Bft)
09.08.2017 15:00 20,8 C 53 % 1014,8 hPa 0,0 l/m 1,4 km/h (1 Bft) S 11,0 C 20,8 C 2,8 km/h (1 Bft)
09.08.2017 16:00 20,0 C 59 % 1014,8 hPa 0,0 l/m 0,3 km/h (0 Bft) S-SW 11,7 C 20,0 C 1,5 km/h (1 Bft)
09.08.2017 17:00 19,5 C 63 % 1014,9 hPa 0,0 l/m 0,2 km/h (0 Bft) N 12,3 C 19,5 C 0,7 km/h (0 Bft)
09.08.2017 18:00 18,8 C 68 % 1014,8 hPa 0,0 l/m 0,5 km/h (0 Bft) W 12,8 C 18,8 C 1,7 km/h (1 Bft)
09.08.2017 19:00 18,1 C 69 % 1014,6 hPa 0,0 l/m 1,0 km/h (0 Bft) W-SW 12,3 C 18,1 C 2,6 km/h (1 Bft)
09.08.2017 20:00 17,4 C 72 % 1014,9 hPa 0,0 l/m 0,6 km/h (0 Bft) N 12,3 C 17,4 C 1,5 km/h (1 Bft)
09.08.2017 21:00 15,4 C 88 % 1015,9 hPa 2,5 l/m 1,3 km/h (1 Bft) O 13,4 C 15,4 C 2,9 km/h (1 Bft)
09.08.2017 22:00 14,2 C 93 % 1016,6 hPa 3,0 l/m 0,5 km/h (0 Bft) O 13,2 C 14,2 C 1,3 km/h (1 Bft)
09.08.2017 23:00 13,9 C 95 % 1016,5 hPa 0,5 l/m 0,2 km/h (0 Bft) N 13,1 C 13,9 C 0,8 km/h (0 Bft)
10.08.2017 00:00 13,8 C 96 % 1016,8 hPa 0,0 l/m 0,3 km/h (0 Bft) O 13,1 C 13,8 C 2,2 km/h (1 Bft)
10.08.2017 01:00 13,8 C 96 % 1016,5 hPa 0,0 l/m 0,0 km/h (0 Bft) O 13,2 C 13,8 C 0,7 km/h (0 Bft)
10.08.2017 02:00 13,8 C 96 % 1016,9 hPa 0,3 l/m 0,1 km/h (0 Bft) O 13,2 C 13,8 C 1,3 km/h (1 Bft)
10.08.2017 03:00 13,7 C 96 % 1017,2 hPa 0,8 l/m 0,3 km/h (0 Bft) O 13,2 C 13,7 C 1,5 km/h (1 Bft)
10.08.2017 04:00 13,6 C 96 % 1016,9 hPa 0,3 l/m 0,2 km/h (0 Bft) O 13,0 C 13,6 C 1,3 km/h (1 Bft)
10.08.2017 05:00 13,5 C 97 % 1016,8 hPa 0,0 l/m 0,1 km/h (0 Bft) O 13,0 C 13,5 C 0,8 km/h (0 Bft)
10.08.2017 06:00 13,3 C 97 % 1016,9 hPa 1,8 l/m 0,4 km/h (0 Bft) O 12,8 C 13,3 C 2,1 km/h (1 Bft)
10.08.2017 07:00 12,5 C 96 % 1017,2 hPa 2,3 l/m 1,0 km/h (0 Bft) O 11,9 C 12,5 C 3,9 km/h (1 Bft)
10.08.2017 08:00 12,1 C 96 % 1017,3 hPa 1,5 l/m 1,1 km/h (0 Bft) O 11,4 C 12,1 C 4,0 km/h (1 Bft)
10.08.2017 09:00 12,1 C 96 % 1017,5 hPa 0,5 l/m 1,0 km/h (0 Bft) O 11,4 C 12,1 C 4,5 km/h (1 Bft)
10.08.2017 10:00 12,1 C 95 % 1017,9 hPa 1,0 l/m 2,0 km/h (1 Bft) O 11,3 C 12,1 C 5,2 km/h (1 Bft)
10.08.2017 11:00 11,8 C 94 % 1018,4 hPa 1,0 l/m 2,2 km/h (1 Bft) O 10,9 C 11,8 C 5,5 km/h (2 Bft)
10.08.2017 12:00 11,5 C 94 % 1018,4 hPa 1,3 l/m 2,3 km/h (1 Bft) O 10,5 C 11,5 C 5,8 km/h (2 Bft)
10.08.2017 13:00 11,1 C 94 % 1018,9 hPa 1,5 l/m 1,6 km/h (1 Bft) O 10,2 C 11,1 C 5,1 km/h (1 Bft)
10.08.2017 14:00 10,9 C 94 % 1019,1 hPa 1,8 l/m 1,5 km/h (1 Bft) O 10,1 C 10,9 C 5,2 km/h (1 Bft)
10.08.2017 15:00 11,0 C 95 % 1019,0 hPa 2,3 l/m 1,5 km/h (1 Bft) NO 10,2 C 11,0 C 4,8 km/h (1 Bft)
10.08.2017 16:00 11,9 C 94 % 1018,1 hPa 0,3 l/m 1,4 km/h (1 Bft) SW 10,9 C 11,9 C 4,8 km/h (1 Bft)
10.08.2017 17:00 12,0 C 92 % 1018,6 hPa 0,0 l/m 1,4 km/h (1 Bft) O 10,8 C 12,0 C 4,5 km/h (1 Bft)
10.08.2017 18:00 11,6 C 94 % 1019,0 hPa 0,0 l/m 1,4 km/h (1 Bft) O-NO 10,7 C 11,6 C 5,1 km/h (1 Bft)
10.08.2017 19:00 11,3 C 94 % 1019,0 hPa 0,0 l/m 1,2 km/h (1 Bft) O-NO 10,3 C 11,3 C 4,7 km/h (1 Bft)
10.08.2017 20:00 10,8 C 95 % 1019,0 hPa 0,0 l/m 0,3 km/h (0 Bft) O-NO 10,1 C 10,8 C 2,1 km/h (1 Bft)
10.08.2017 21:00 10,4 C 95 % 1018,6 hPa 0,0 l/m 0,0 km/h (0 Bft) O-NO 9,6 C 10,4 C 0,3 km/h (0 Bft)
10.08.2017 22:00 9,4 C 96 % 1018,6 hPa 0,0 l/m 0,3 km/h (0 Bft) O-NO 8,7 C 9,4 C 2,0 km/h (1 Bft)
10.08.2017 23:00 8,8 C 97 % 1018,4 hPa 0,0 l/m 0,5 km/h (0 Bft) O 8,3 C 8,8 C 2,4 km/h (1 Bft)
11.08.2017 00:00 8,9 C 97 % 1018,5 hPa 0,0 l/m 0,1 km/h (0 Bft) O 8,5 C 8,9 C 1,3 km/h (1 Bft)
11.08.2017 01:00 9,0 C 98 % 1018,6 hPa 0,0 l/m 0,6 km/h (0 Bft) O 8,7 C 9,0 C 2,8 km/h (1 Bft)
11.08.2017 02:00 8,9 C 98 % 1018,4 hPa 0,0 l/m 0,5 km/h (0 Bft) O 8,6 C 8,9 C 2,9 km/h (1 Bft)
11.08.2017 03:00 8,8 C 98 % 1017,8 hPa 0,0 l/m 0,1 km/h (0 Bft) N-NO 8,5 C 8,8 C 0,8 km/h (0 Bft)
11.08.2017 04:00 8,7 C 98 % 1017,6 hPa 0,0 l/m 0,3 km/h (0 Bft) N-NO 8,4 C 8,7 C 1,5 km/h (1 Bft)
11.08.2017 05:00 8,7 C 98 % 1017,2 hPa 0,0 l/m 0,2 km/h (0 Bft) O-NO 8,4 C 8,7 C 0,9 km/h (0 Bft)
11.08.2017 06:00 8,6 C 98 % 1016,7 hPa 0,0 l/m 0,4 km/h (0 Bft) O-NO 8,3 C 8,6 C 2,1 km/h (1 Bft)
11.08.2017 07:00 8,9 C 98 % 1016,7 hPa 0,0 l/m 0,8 km/h (0 Bft) O-NO 8,6 C 8,9 C 3,1 km/h (1 Bft)
11.08.2017 08:00 9,6 C 98 % 1016,4 hPa 0,0 l/m 0,6 km/h (0 Bft) NO 9,3 C 9,6 C 2,7 km/h (1 Bft)
11.08.2017 09:00 11,2 C 97 % 1016,2 hPa 0,0 l/m 1,3 km/h (1 Bft) O 10,7 C 11,2 C 4,8 km/h (1 Bft)
11.08.2017 10:00 11,0 C 95 % 1016,7 hPa 0,0 l/m 2,6 km/h (1 Bft) NO 10,2 C 11,0 C 7,5 km/h (2 Bft)
11.08.2017 11:00 11,7 C 92 % 1017,0 hPa 0,0 l/m 3,4 km/h (1 Bft) O-NO 10,5 C 11,7 C 8,6 km/h (2 Bft)
11.08.2017 12:00 11,7 C 92 % 1017,1 hPa 0,0 l/m 3,6 km/h (1 Bft) NO 10,4 C 11,7 C 7,1 km/h (2 Bft)
11.08.2017 13:00 11,7 C 93 % 1016,8 hPa 0,0 l/m 2,9 km/h (1 Bft) O-NO 10,6 C 11,7 C 7,5 km/h (2 Bft)
11.08.2017 14:00 11,9 C 92 % 1016,7 hPa 0,0 l/m 3,6 km/h (1 Bft) O 10,7 C 11,9 C 9,0 km/h (2 Bft)
11.08.2017 15:00 12,4 C 91 % 1016,8 hPa 0,0 l/m 4,2 km/h (1 Bft) NO 11,0 C 12,4 C 10,2 km/h (2 Bft)
11.08.2017 16:00 12,7 C 90 % 1017,0 hPa 0,0 l/m 4,5 km/h (1 Bft) O-NO 11,1 C 12,7 C 11,8 km/h (2 Bft)
11.08.2017 17:00 12,9 C 91 % 1017,0 hPa 0,0 l/m 3,1 km/h (1 Bft) O 11,4 C 12,9 C 7,6 km/h (2 Bft)
11.08.2017 18:00 12,7 C 92 % 1016,9 hPa 0,0 l/m 2,8 km/h (1 Bft) O-NO 11,5 C 12,7 C 7,4 km/h (2 Bft)
11.08.2017 19:00 12,4 C 94 % 1017,1 hPa 0,3 l/m 1,8 km/h (1 Bft) O-NO 11,5 C 12,4 C 5,1 km/h (1 Bft)
11.08.2017 20:00 12,1 C 96 % 1017,6 hPa 2,8 l/m 2,0 km/h (1 Bft) O-NO 11,4 C 12,1 C 5,5 km/h (2 Bft)
11.08.2017 21:00 11,7 C 96 % 1018,1 hPa 0,8 l/m 2,0 km/h (1 Bft) O-NO 11,1 C 11,7 C 6,6 km/h (2 Bft)
11.08.2017 22:00 11,6 C 97 % 1018,4 hPa 0,5 l/m 1,3 km/h (1 Bft) O-NO 11,1 C 11,6 C 4,7 km/h (1 Bft)
11.08.2017 23:00 11,7 C 97 % 1018,6 hPa 0,3 l/m 0,0 km/h (0 Bft) O-NO 11,2 C 11,7 C 0,2 km/h (0 Bft)
12.08.2017 00:00 11,7 C 97 % 1018,5 hPa 0,0 l/m 0,4 km/h (0 Bft) O-NO 11,3 C 11,7 C 1,7 km/h (1 Bft)
12.08.2017 01:00 11,7 C 97 % 1018,3 hPa 1,3 l/m 1,7 km/h (1 Bft) NO 11,2 C 11,7 C 6,3 km/h (2 Bft)
12.08.2017 02:00 11,5 C 97 % 1018,2 hPa 1,0 l/m 1,7 km/h (1 Bft) NO 11,1 C 11,5 C 6,3 km/h (2 Bft)
12.08.2017 03:00 11,5 C 97 % 1018,3 hPa 0,3 l/m 0,7 km/h (0 Bft) O 11,1 C 11,5 C 3,5 km/h (1 Bft)
12.08.2017 04:00 11,6 C 97 % 1018,3 hPa 0,3 l/m 0,7 km/h (0 Bft) O 11,1 C 11,6 C 3,3 km/h (1 Bft)
12.08.2017 05:00 11,5 C 97 % 1018,0 hPa 0,5 l/m 1,4 km/h (1 Bft) O-NO 11,0 C 11,5 C 5,5 km/h (2 Bft)
12.08.2017 06:00 11,4 C 97 % 1018,0 hPa 0,5 l/m 1,3 km/h (1 Bft) O-NO 10,9 C 11,4 C 4,8 km/h (1 Bft)
12.08.2017 07:00 11,5 C 97 % 1018,3 hPa 0,3 l/m 1,6 km/h (1 Bft) O 11,1 C 11,5 C 5,2 km/h (1 Bft)
12.08.2017 08:00 11,7 C 97 % 1018,8 hPa 0,5 l/m 1,9 km/h (1 Bft) O 11,3 C 11,7 C 5,6 km/h (2 Bft)
12.08.2017 09:00 12,3 C 96 % 1019,2 hPa 0,0 l/m 2,7 km/h (1 Bft) O-NO 11,6 C 12,3 C 5,3 km/h (1 Bft)
12.08.2017 10:00 12,6 C 95 % 1019,2 hPa 0,0 l/m 3,7 km/h (1 Bft) O-NO 11,8 C 12,6 C 7,4 km/h (2 Bft)
12.08.2017 11:00 13,0 C 94 % 1019,5 hPa 0,0 l/m 3,6 km/h (1 Bft) O-NO 12,0 C 13,0 C 7,3 km/h (2 Bft)
12.08.2017 12:00 15,2 C 88 % 1019,5 hPa 0,0 l/m 6,2 km/h (2 Bft) O-SO 13,1 C 15,0 C 14,5 km/h (3 Bft)
12.08.2017 13:00 15,6 C 84 % 1019,7 hPa 0,0 l/m 4,0 km/h (1 Bft) O-NO 13,0 C 15,6 C 10,6 km/h (2 Bft)
12.08.2017 14:00 15,8 C 83 % 1019,7 hPa 0,0 l/m 4,5 km/h (1 Bft) O-NO 13,0 C 15,8 C 11,3 km/h (2 Bft)
12.08.2017 15:00 16,2 C 81 % 1019,7 hPa 0,0 l/m 3,4 km/h (1 Bft) O-NO 13,0 C 16,2 C 9,4 km/h (2 Bft)
12.08.2017 16:00 16,2 C 79 % 1019,8 hPa 0,0 l/m 3,9 km/h (1 Bft) O-NO 12,5 C 16,1 C 12,2 km/h (2 Bft)
12.08.2017 17:00 16,4 C 73 % 1020,1 hPa 0,3 l/m 5,4 km/h (2 Bft) O-NO 11,6 C 16,3 C 14,0 km/h (3 Bft)
12.08.2017 18:00 16,0 C 75 % 1020,1 hPa 0,0 l/m 5,1 km/h (1 Bft) O-NO 11,5 C 15,9 C 13,8 km/h (3 Bft)
12.08.2017 19:00 14,8 C 79 % 1020,1 hPa 0,0 l/m 4,3 km/h (1 Bft) O-NO 11,3 C 14,8 C 9,7 km/h (2 Bft)
12.08.2017 20:00 14,1 C 84 % 1020,2 hPa 0,0 l/m 3,1 km/h (1 Bft) O-NO 11,4 C 14,1 C 6,7 km/h (2 Bft)
12.08.2017 21:00 13,3 C 89 % 1020,6 hPa 0,0 l/m 0,7 km/h (0 Bft) O 11,5 C 13,3 C 2,4 km/h (1 Bft)
12.08.2017 22:00 13,1 C 90 % 1020,7 hPa 0,0 l/m 0,3 km/h (0 Bft) O 11,5 C 13,1 C 1,7 km/h (1 Bft)
12.08.2017 23:00 13,2 C 90 % 1020,4 hPa 0,0 l/m 0,4 km/h (0 Bft) O 11,6 C 13,2 C 1,7 km/h (1 Bft)
13.08.2017 00:00 13,6 C 86 % 1020,3 hPa 0,0 l/m 1,7 km/h (1 Bft) O 11,2 C 13,6 C 5,1 km/h (1 Bft)
13.08.2017 01:00 14,5 C 81 % 1020,0 hPa 0,0 l/m 2,3 km/h (1 Bft) O 11,2 C 14,5 C 6,4 km/h (2 Bft)
13.08.2017 02:00 14,2 C 83 % 1019,8 hPa 0,0 l/m 0,6 km/h (0 Bft) O 11,3 C 14,2 C 3,9 km/h (1 Bft)
13.08.2017 03:00 13,7 C 87 % 1019,5 hPa 0,0 l/m 0,2 km/h (0 Bft) O 11,5 C 13,7 C 2,0 km/h (1 Bft)
13.08.2017 04:00 12,6 C 91 % 1019,4 hPa 0,0 l/m 0,0 km/h (0 Bft) S 11,2 C 12,6 C 0,1 km/h (0 Bft)
13.08.2017 05:00 11,8 C 93 % 1019,3 hPa 0,0 l/m 0,0 km/h (0 Bft) S 10,7 C 11,8 C 0,4 km/h (0 Bft)
13.08.2017 06:00 11,3 C 95 % 1019,6 hPa 0,0 l/m 0,1 km/h (0 Bft) S 10,5 C 11,3 C 1,7 km/h (1 Bft)
13.08.2017 07:00 12,9 C 91 % 1019,7 hPa 0,0 l/m 1,6 km/h (1 Bft) O-NO 11,5 C 12,9 C 4,9 km/h (1 Bft)
13.08.2017 08:00 15,3 C 82 % 1019,9 hPa 0,0 l/m 2,4 km/h (1 Bft) NO 12,3 C 15,3 C 5,5 km/h (2 Bft)
13.08.2017 09:00 16,5 C 78 % 1020,2 hPa 0,0 l/m 3,5 km/h (1 Bft) O-NO 12,6 C 16,5 C 8,4 km/h (2 Bft)
13.08.2017 10:00 17,4 C 75 % 1020,3 hPa 0,0 l/m 3,1 km/h (1 Bft) O-NO 13,0 C 17,4 C 7,1 km/h (2 Bft)
13.08.2017 11:00 18,5 C 73 % 1020,2 hPa 0,0 l/m 3,6 km/h (1 Bft) NO 13,6 C 18,4 C 8,3 km/h (2 Bft)
13.08.2017 12:00 19,7 C 70 % 1019,9 hPa 0,0 l/m 4,2 km/h (1 Bft) O-NO 14,1 C 19,7 C 7,3 km/h (2 Bft)
13.08.2017 13:00 21,1 C 67 % 1019,6 hPa 0,0 l/m 2,7 km/h (1 Bft) O-NO 14,6 C 21,1 C 5,4 km/h (2 Bft)
13.08.2017 14:00 21,5 C 66 % 1019,2 hPa 0,0 l/m 2,6 km/h (1 Bft) O-NO 14,7 C 21,5 C 5,1 km/h (1 Bft)
13.08.2017 15:00 22,1 C 64 % 1019,0 hPa 0,0 l/m 2,6 km/h (1 Bft) O-NO 14,8 C 22,1 C 4,7 km/h (1 Bft)
13.08.2017 16:00 22,3 C 63 % 1019,0 hPa 0,0 l/m 1,3 km/h (1 Bft) S 14,9 C 22,3 C 3,1 km/h (1 Bft)
13.08.2017 17:00 22,5 C 64 % 1018,8 hPa 0,0 l/m 1,7 km/h (1 Bft) NW 15,4 C 22,5 C 3,9 km/h (1 Bft)
13.08.2017 18:00 22,0 C 67 % 1018,7 hPa 0,0 l/m 1,2 km/h (1 Bft) O-NO 15,5 C 22,0 C 4,0 km/h (1 Bft)
13.08.2017 19:00 19,9 C 75 % 1018,9 hPa 0,0 l/m 1,4 km/h (1 Bft) O-NO 15,3 C 19,9 C 5,8 km/h (2 Bft)
13.08.2017 20:00 18,7 C 80 % 1019,2 hPa 0,0 l/m 1,0 km/h (0 Bft) S-SO 15,2 C 18,7 C 4,7 km/h (1 Bft)
13.08.2017 21:00 17,6 C 85 % 1019,7 hPa 0,0 l/m 0,7 km/h (0 Bft) W 15,1 C 17,6 C 3,9 km/h (1 Bft)
13.08.2017 22:00 16,8 C 87 % 1019,7 hPa 0,0 l/m 0,4 km/h (0 Bft) W-NW 14,6 C 16,8 C 2,3 km/h (1 Bft)
13.08.2017 23:00 15,5 C 91 % 1019,7 hPa 0,0 l/m 0,0 km/h (0 Bft) W-NW 14,0 C 15,5 C 0,1 km/h (0 Bft)
Min-Datum _ 07.08.17 07.08.17 08.08.17 - 13.08.17 - 07.08.17 07.08.17 13.08.17
_ Min-Zeit 06:45 16:15 12:30 - 23:00 - 06:30 06:45 23:00
Minimum _ 7,5 C 39 % 1008,6 hPa - 0,0 km/h (0 Bft) - 6,9 C 7,5 C 0,0 km/h (0 Bft)
Max-Datum _ 07.08.17 11.08.17 07.08.17 09.08.17 12.08.17 - 13.08.17 07.08.17 12.08.17
_ Max-Zeit 17:20 09:00 00:02 22:04 12:35 - 18:50 17:20 12:35
Maximum _ 25,1 C 98 % 1021,1 hPa 3,0 l/m 9,1 km/h
O-SO (2 Bft)
- 16,1 C 25,1 C 22,5 km/h
O-NO (4 Bft)
Durchschnitt _ 14,5 C 84 % 1016,8 hPa #32,0 l/m 1,6 km/h (1 Bft) O 11,6 C 14,5 C 4,7 km/h (1 Bft)